createdAt,value
2023-05-21T00:00:21.592Z,71.10
2023-05-21T00:00:53.816Z,70.10
2023-05-21T00:01:25.819Z,70.70
2023-05-21T00:01:59.996Z,71.30
2023-05-21T00:02:32.105Z,70.20
2023-05-21T00:03:04.150Z,71.00
2023-05-21T00:03:36.559Z,70.80
2023-05-21T00:04:08.795Z,70.10
2023-05-21T00:04:41.213Z,71.10
2023-05-21T00:05:15.181Z,70.00
2023-05-21T00:05:47.293Z,71.20
2023-05-21T00:06:21.138Z,71.10
2023-05-21T00:06:53.075Z,70.20
2023-05-21T00:07:25.419Z,71.00
2023-05-21T00:07:57.234Z,71.30
2023-05-21T00:08:29.084Z,71.40
2023-05-21T00:09:00.936Z,71.30
2023-05-21T00:09:32.778Z,70.80
2023-05-21T00:10:05.134Z,70.90
2023-05-21T00:10:36.937Z,70.70
2023-05-21T00:11:41.234Z,70.10
2023-05-21T00:12:13.285Z,70.10
2023-05-21T00:12:45.113Z,70.80
2023-05-21T00:13:17.055Z,70.10
2023-05-21T00:13:48.835Z,71.40
2023-05-21T00:14:20.796Z,71.50
2023-05-21T00:14:52.668Z,71.20
2023-05-21T00:15:24.462Z,71.20
2023-05-21T00:15:56.301Z,69.60
2023-05-21T00:16:28.166Z,70.70
2023-05-21T00:17:00.028Z,71.20
2023-05-21T00:17:32.579Z,71.60
2023-05-21T00:18:05.126Z,70.90
2023-05-21T00:18:39.447Z,70.70
2023-05-21T00:19:11.297Z,70.30
2023-05-21T00:19:43.190Z,71.00
2023-05-21T00:20:16.241Z,70.80
2023-05-21T00:20:48.128Z,71.90
2023-05-21T00:21:23.083Z,71.50
2023-05-21T00:21:55.934Z,70.90
2023-05-21T00:22:27.762Z,71.00
2023-05-21T00:23:02.664Z,71.40
2023-05-21T00:23:36.535Z,71.50
2023-05-21T00:24:08.510Z,71.10
2023-05-21T00:24:40.323Z,71.70
2023-05-21T00:25:12.369Z,70.30
2023-05-21T00:25:45.413Z,71.60
2023-05-21T00:26:17.189Z,70.70
2023-05-21T00:26:48.985Z,72.20
2023-05-21T00:27:20.838Z,72.10
2023-05-21T00:27:52.667Z,71.00
2023-05-21T00:28:56.794Z,70.40
2023-05-21T00:29:30.120Z,71.00
2023-05-21T00:30:02.595Z,70.50
2023-05-21T00:30:34.735Z,70.80
2023-05-21T00:31:06.584Z,70.60
2023-05-21T00:31:38.421Z,71.10
2023-05-21T00:32:10.554Z,70.70
2023-05-21T00:32:42.685Z,70.70
2023-05-21T00:33:14.662Z,71.80
2023-05-21T00:33:46.729Z,70.60
2023-05-21T00:34:18.498Z,72.10
2023-05-21T00:34:50.441Z,70.60
2023-05-21T00:35:22.307Z,71.80
2023-05-21T00:35:54.257Z,71.00
2023-05-21T00:36:26.593Z,70.70
2023-05-21T00:37:34.078Z,70.50
2023-05-21T00:38:07.401Z,71.70
2023-05-21T00:38:39.190Z,71.90
2023-05-21T00:39:11.809Z,70.50
2023-05-21T00:39:43.660Z,70.50
2023-05-21T00:40:16.349Z,71.30
2023-05-21T00:40:48.766Z,71.30
2023-05-21T00:41:22.936Z,71.30
2023-05-21T00:41:56.878Z,70.30
2023-05-21T00:42:30.695Z,71.80
2023-05-21T00:43:03.412Z,71.50
2023-05-21T00:43:35.200Z,71.50
2023-05-21T00:44:07.662Z,71.50
2023-05-21T00:44:40.201Z,70.50
2023-05-21T00:45:12.520Z,70.40
2023-05-21T00:45:46.566Z,70.50
2023-05-21T00:46:22.395Z,70.90
2023-05-21T00:46:54.424Z,70.30
2023-05-21T00:47:29.582Z,71.00
2023-05-21T00:48:02.755Z,70.60
2023-05-21T00:48:35.237Z,70.50
2023-05-21T00:49:07.519Z,70.40
2023-05-21T00:49:39.870Z,71.00
2023-05-21T00:50:12.169Z,70.60
2023-05-21T00:50:44.857Z,70.70
2023-05-21T00:51:18.412Z,71.40
2023-05-21T00:51:51.892Z,70.60
2023-05-21T00:52:26.796Z,71.20
2023-05-21T00:52:59.671Z,71.10
2023-05-21T00:53:34.971Z,71.30
2023-05-21T00:54:08.191Z,71.10
2023-05-21T00:54:40.172Z,72.50
2023-05-21T00:55:12.498Z,71.40
2023-05-21T00:55:44.664Z,71.80
2023-05-21T00:56:16.780Z,71.20
2023-05-21T00:56:49.048Z,70.70
2023-05-21T00:57:22.923Z,71.90
2023-05-21T00:57:54.900Z,73.20
2023-05-21T00:58:27.375Z,70.70
2023-05-21T00:58:59.644Z,70.70
2023-05-21T00:59:33.564Z,72.30
2023-05-21T01:00:10.388Z,71.00
2023-05-21T01:00:44.185Z,71.60
2023-05-21T01:01:16.138Z,71.30
2023-05-21T01:01:55.860Z,72.80
2023-05-21T01:02:27.986Z,70.90
2023-05-21T01:03:02.841Z,72.50
2023-05-21T01:03:38.758Z,71.00
2023-05-21T01:04:13.165Z,72.10
2023-05-21T01:04:47.898Z,72.40
2023-05-21T01:05:19.793Z,71.00
2023-05-21T01:05:53.148Z,71.80
2023-05-21T01:06:24.977Z,71.70
2023-05-21T01:06:58.496Z,72.40
2023-05-21T01:07:30.643Z,71.90
2023-05-21T01:08:03.708Z,71.10
2023-05-21T01:08:37.616Z,71.80
2023-05-21T01:09:09.961Z,72.30
2023-05-21T01:09:43.317Z,72.60
2023-05-21T01:10:15.419Z,72.60
2023-05-21T01:10:49.016Z,72.80
2023-05-21T01:11:21.938Z,71.40
2023-05-21T01:11:56.295Z,72.90
2023-05-21T01:12:30.925Z,71.60
2023-05-21T01:13:03.054Z,71.20
2023-05-21T01:13:38.813Z,71.90
2023-05-21T01:14:13.145Z,71.30
2023-05-21T01:14:45.893Z,71.20
2023-05-21T01:15:17.945Z,73.00
2023-05-21T01:15:51.132Z,71.00
2023-05-21T01:16:23.230Z,72.80
2023-05-21T01:16:55.315Z,71.60
2023-05-21T01:17:29.818Z,71.70
2023-05-21T01:18:02.017Z,73.00
2023-05-21T01:18:35.327Z,71.90
2023-05-21T01:19:10.426Z,71.50
2023-05-21T01:19:44.702Z,71.80
2023-05-21T01:20:19.545Z,72.50
2023-05-21T01:20:53.683Z,71.70
2023-05-21T01:21:28.404Z,72.00
2023-05-21T01:22:07.882Z,73.00
2023-05-21T01:22:49.370Z,72.80
2023-05-21T01:23:21.372Z,72.40
2023-05-21T01:23:53.230Z,71.80
2023-05-21T01:24:25.030Z,72.20
2023-05-21T01:24:57.166Z,71.50
2023-05-21T01:25:28.987Z,72.30
2023-05-21T01:26:00.800Z,71.70
2023-05-21T01:26:33.754Z,72.40
2023-05-21T01:27:07.706Z,71.90
2023-05-21T01:27:39.679Z,71.60
2023-05-21T01:28:12.784Z,72.50
2023-05-21T01:28:44.600Z,72.20
2023-05-21T01:29:16.567Z,71.90
2023-05-21T01:29:48.435Z,71.50
2023-05-21T01:30:22.463Z,71.80
2023-05-21T01:30:56.378Z,71.90
2023-05-21T01:31:37.673Z,71.50
2023-05-21T01:32:18.930Z,71.90
2023-05-21T01:33:13.184Z,71.60
2023-05-21T01:33:52.019Z,71.70
2023-05-21T01:34:34.718Z,72.20
2023-05-21T01:35:22.088Z,71.20
2023-05-21T01:36:08.678Z,73.90
2023-05-21T01:36:52.372Z,71.80
2023-05-21T01:37:29.941Z,71.80
2023-05-21T01:38:27.137Z,71.60
2023-05-21T01:39:14.691Z,71.40
2023-05-21T01:40:01.442Z,72.10
2023-05-21T01:40:39.823Z,71.70
2023-05-21T01:41:13.397Z,71.50
2023-05-21T01:41:47.152Z,71.50
2023-05-21T01:42:22.470Z,73.30
2023-05-21T01:43:29.245Z,71.60
2023-05-21T01:44:03.471Z,72.90
2023-05-21T01:44:36.744Z,72.60
2023-05-21T01:45:09.558Z,72.10
2023-05-21T01:45:45.078Z,72.70
2023-05-21T01:46:23.185Z,72.00
2023-05-21T01:46:58.507Z,72.60
2023-05-21T01:47:33.011Z,72.10
2023-05-21T01:48:07.832Z,72.50
2023-05-21T01:48:40.817Z,73.50
2023-05-21T01:49:13.359Z,73.20
2023-05-21T01:49:46.207Z,72.50
2023-05-21T01:50:19.019Z,72.70
2023-05-21T01:50:52.922Z,73.00
2023-05-21T01:51:26.134Z,72.30
2023-05-21T01:51:58.051Z,72.70
2023-05-21T01:52:29.907Z,73.10
2023-05-21T01:53:03.724Z,72.30
2023-05-21T01:53:38.723Z,72.40
2023-05-21T01:54:10.706Z,73.40
2023-05-21T01:55:15.062Z,72.20
2023-05-21T01:55:46.971Z,72.80
2023-05-21T01:56:18.817Z,72.70
2023-05-21T01:56:50.899Z,73.30
2023-05-21T01:57:23.218Z,73.20
2023-05-21T01:57:56.322Z,72.90
2023-05-21T01:58:28.611Z,73.30
2023-05-21T01:59:00.705Z,73.70
2023-05-21T01:59:33.138Z,75.00
2023-05-21T02:01:52.287Z,76.60
2023-05-21T02:02:56.854Z,74.60
2023-05-21T02:03:30.888Z,74.00
2023-05-21T02:04:03.150Z,75.00
2023-05-21T02:06:45.093Z,76.60
2023-05-21T02:08:57.545Z,74.10
2023-05-21T02:09:29.370Z,74.00
2023-05-21T02:10:33.462Z,72.20
2023-05-21T02:11:05.530Z,74.20
2023-05-21T02:12:43.171Z,74.30
2023-05-21T02:13:15.815Z,74.90
2023-05-21T02:13:47.689Z,74.80
2023-05-21T02:14:20.491Z,75.00
2023-05-21T02:15:24.954Z,75.20
2023-05-21T02:15:57.034Z,75.40
2023-05-21T02:16:29.255Z,75.30
2023-05-21T02:17:38.582Z,74.90
2023-05-21T02:18:18.474Z,72.10
2023-05-21T02:19:29.347Z,72.20
2023-05-21T02:21:52.509Z,75.80
2023-05-21T02:22:56.927Z,77.10
2023-05-21T02:25:41.241Z,76.60
2023-05-21T04:10:20.758Z,79.10
2023-05-21T04:10:53.663Z,77.70
2023-05-21T09:20:17.460Z,86.40
2023-05-21T09:20:56.515Z,87.60
2023-05-21T09:21:31.478Z,88.10
2023-05-21T09:22:07.835Z,88.20
2023-05-21T09:22:45.299Z,87.00
2023-05-21T11:31:26.776Z,80.00
2023-05-21T11:32:02.899Z,80.60
2023-05-21T11:32:58.637Z,81.20
2023-05-21T11:33:30.755Z,81.40
2023-05-21T11:34:19.765Z,81.10
2023-05-21T11:34:51.828Z,80.90
2023-05-21T11:35:27.087Z,80.40
2023-05-21T11:36:00.137Z,80.90
2023-05-21T11:36:33.033Z,80.90
2023-05-21T11:37:18.531Z,81.00
2023-05-21T11:37:54.015Z,81.00
2023-05-21T11:38:30.069Z,81.00
2023-05-21T11:39:17.913Z,81.20
2023-05-21T11:39:51.272Z,81.00
2023-05-21T11:40:30.513Z,81.20
2023-05-21T11:41:04.286Z,81.70
2023-05-21T11:42:00.460Z,81.40
2023-05-21T11:42:38.750Z,81.30
2023-05-21T11:43:10.644Z,81.30
2023-05-21T11:43:44.065Z,81.40
2023-05-21T11:44:15.979Z,81.30
2023-05-21T11:44:48.751Z,81.30
2023-05-21T11:45:23.059Z,81.30
2023-05-21T11:45:55.499Z,81.10
2023-05-21T11:46:28.335Z,81.00
2023-05-21T11:47:00.627Z,81.20
2023-05-21T11:47:33.181Z,80.90
2023-05-21T11:48:06.390Z,80.90
2023-05-21T11:48:39.347Z,80.20
2023-05-21T11:49:11.858Z,80.10
2023-05-21T11:49:44.520Z,80.70
2023-05-21T11:50:17.422Z,80.60
2023-05-21T11:50:49.309Z,80.50
2023-05-21T11:51:21.602Z,80.40
2023-05-21T11:51:53.589Z,80.50
2023-05-21T11:52:26.819Z,80.40
2023-05-21T11:52:59.865Z,80.30
2023-05-21T11:53:31.769Z,80.50
2023-05-21T11:54:03.892Z,80.40
2023-05-21T11:54:48.629Z,80.30
2023-05-21T11:55:25.779Z,80.20
2023-05-21T11:55:58.155Z,80.40
2023-05-21T11:56:31.867Z,80.30
2023-05-21T11:57:07.825Z,80.30
2023-05-21T11:57:42.858Z,80.20
2023-05-21T11:58:48.356Z,79.70
2023-05-21T11:59:20.585Z,80.30
2023-05-21T11:59:53.133Z,80.50
2023-05-21T12:00:31.211Z,80.40
2023-05-21T12:01:03.122Z,79.90
2023-05-21T12:01:34.920Z,80.50
2023-05-21T12:02:07.529Z,80.60
2023-05-21T12:02:44.242Z,80.30
2023-05-21T12:03:19.767Z,80.30
2023-05-21T12:03:51.806Z,79.90
2023-05-21T12:04:23.713Z,79.80
2023-05-21T12:05:00.030Z,79.60
2023-05-21T12:05:31.979Z,80.20
2023-05-21T12:06:06.797Z,80.30
2023-05-21T12:06:42.402Z,80.50
2023-05-21T12:07:16.836Z,80.40
2023-05-21T12:07:50.461Z,80.40
2023-05-21T12:08:26.954Z,79.60
2023-05-21T12:08:58.952Z,80.00
2023-05-21T12:09:30.904Z,79.80
2023-05-21T12:10:02.692Z,79.60
2023-05-21T12:10:34.695Z,79.70
2023-05-21T12:11:06.741Z,79.70
2023-05-21T12:11:41.921Z,79.50
2023-05-21T12:12:21.541Z,79.40
2023-05-21T12:12:56.873Z,78.80
2023-05-21T12:13:29.805Z,78.90
2023-05-21T12:14:01.898Z,79.10
2023-05-21T12:14:34.272Z,79.10
2023-05-21T12:15:06.963Z,78.90
2023-05-21T12:15:38.788Z,78.90
2023-05-21T12:16:10.815Z,79.20
2023-05-21T12:16:43.066Z,78.80
2023-05-21T12:17:19.725Z,78.20
2023-05-21T12:17:53.058Z,79.00
2023-05-21T12:18:26.346Z,78.60
2023-05-21T12:18:58.236Z,79.00
2023-05-21T12:19:36.293Z,79.20
2023-05-21T12:20:10.665Z,78.90
2023-05-21T12:20:44.338Z,78.40
2023-05-21T12:21:16.742Z,78.80
2023-05-21T12:21:48.560Z,79.50
2023-05-21T12:22:21.338Z,78.90
2023-05-21T12:22:53.224Z,78.80
2023-05-21T12:23:25.779Z,78.90
2023-05-21T12:23:57.778Z,78.30
2023-05-21T12:24:33.388Z,78.20
2023-05-21T12:25:05.972Z,79.00
2023-05-21T12:25:37.794Z,78.90
2023-05-21T12:26:10.062Z,78.40
2023-05-21T12:26:44.464Z,79.00
2023-05-21T12:27:18.108Z,79.40
2023-05-21T12:27:57.649Z,79.30
2023-05-21T12:28:30.700Z,79.00
2023-05-21T12:29:05.776Z,78.90
2023-05-21T12:29:40.129Z,79.00
2023-05-21T12:30:12.595Z,79.10
2023-05-21T12:30:44.513Z,78.90
2023-05-21T12:31:16.520Z,78.90
2023-05-21T12:31:49.968Z,79.10
2023-05-21T12:32:22.152Z,78.90
2023-05-21T12:33:36.346Z,78.50
2023-05-21T12:34:08.204Z,79.00
2023-05-21T12:34:44.709Z,79.10
2023-05-21T12:35:24.509Z,79.30
2023-05-21T12:35:56.814Z,78.60
2023-05-21T12:36:31.865Z,79.30
2023-05-21T12:37:06.599Z,79.20
2023-05-21T12:37:38.546Z,79.10
2023-05-21T12:38:10.601Z,79.30
2023-05-21T12:38:43.035Z,79.50
2023-05-21T12:39:16.167Z,79.10
2023-05-21T12:39:58.562Z,79.00
2023-05-21T12:40:38.411Z,79.20
2023-05-21T12:41:11.239Z,79.20
2023-05-21T12:41:44.047Z,79.20
2023-05-21T12:42:16.624Z,78.70
2023-05-21T12:42:49.336Z,79.20
2023-05-21T12:43:21.246Z,79.00
2023-05-21T12:43:53.141Z,79.20
2023-05-21T12:44:31.320Z,79.10
2023-05-21T12:45:12.225Z,79.00
2023-05-21T12:45:44.096Z,79.20
2023-05-21T12:46:18.822Z,79.20
2023-05-21T12:46:51.520Z,79.30
2023-05-21T12:47:27.858Z,78.50
2023-05-21T12:48:03.095Z,78.80
2023-05-21T12:48:35.004Z,78.40
2023-05-21T12:49:06.971Z,78.90
2023-05-21T12:49:50.365Z,79.00
2023-05-21T12:50:22.539Z,76.80
2023-05-21T12:50:54.345Z,78.90
2023-05-21T12:51:26.146Z,78.80
2023-05-21T12:51:57.947Z,78.70
2023-05-21T12:52:33.479Z,78.60
2023-05-21T12:53:09.377Z,78.50
2023-05-21T12:53:44.382Z,79.50
2023-05-21T12:54:16.274Z,78.50
2023-05-21T12:54:52.124Z,78.20
2023-05-21T12:55:26.700Z,78.00
2023-05-21T12:56:08.755Z,78.10
2023-05-21T12:56:46.832Z,77.90
2023-05-21T12:57:25.832Z,77.90
2023-05-21T12:58:08.823Z,77.00
2023-05-21T12:58:42.331Z,77.70
2023-05-21T12:59:17.232Z,77.70
2023-05-21T12:59:55.275Z,77.80
2023-05-21T13:00:27.114Z,77.60
2023-05-21T13:00:58.921Z,77.80
2023-05-21T13:01:30.758Z,77.80
2023-05-21T13:02:02.807Z,77.80
2023-05-21T13:02:38.749Z,77.80
2023-05-21T13:03:11.241Z,76.00
2023-05-21T13:03:44.121Z,77.80
2023-05-21T13:04:19.064Z,77.80
2023-05-21T13:05:04.131Z,77.40
2023-05-21T13:05:39.680Z,77.70
2023-05-21T13:06:11.550Z,77.90
2023-05-21T13:06:44.130Z,77.10
2023-05-21T13:07:16.713Z,77.60
2023-05-21T13:07:48.727Z,78.00
2023-05-21T13:08:20.630Z,77.70
2023-05-21T13:08:52.449Z,77.60
2023-05-21T13:09:24.305Z,77.50
2023-05-21T13:09:57.165Z,77.50
2023-05-21T13:10:28.974Z,77.40
2023-05-21T13:11:02.289Z,77.30
2023-05-21T13:11:34.096Z,77.20
2023-05-21T13:12:06.365Z,77.50
2023-05-21T13:12:38.188Z,77.40
2023-05-21T13:13:10.071Z,77.40
2023-05-21T13:13:41.820Z,77.40
2023-05-21T13:14:13.599Z,77.40
2023-05-21T13:14:45.501Z,77.40
2023-05-21T13:15:17.291Z,77.30
2023-05-21T13:15:49.091Z,77.30
2023-05-21T13:16:22.890Z,77.30
2023-05-21T13:16:54.975Z,77.40
2023-05-21T13:17:27.825Z,77.40
2023-05-21T13:18:01.118Z,77.40
2023-05-21T13:18:33.205Z,77.40
2023-05-21T13:19:05.050Z,77.50
2023-05-21T13:19:36.980Z,77.50
2023-05-21T13:20:16.855Z,77.30
2023-05-21T13:20:49.247Z,77.20
2023-05-21T13:21:21.098Z,77.30
2023-05-21T13:21:52.970Z,77.60
2023-05-21T13:22:24.753Z,77.30
2023-05-21T13:22:56.781Z,77.00
2023-05-21T13:23:28.616Z,77.20
2023-05-21T13:24:00.441Z,77.30
2023-05-21T13:24:32.197Z,77.70
2023-05-21T13:25:04.332Z,76.50
2023-05-21T13:25:36.317Z,76.90
2023-05-21T13:26:08.140Z,77.00
2023-05-21T13:26:39.972Z,77.10
2023-05-21T13:27:11.767Z,77.10
2023-05-21T13:27:43.900Z,77.10
2023-05-21T13:28:16.971Z,77.10
2023-05-21T13:28:48.757Z,77.10
2023-05-21T13:29:20.939Z,77.30
2023-05-21T13:29:52.810Z,77.20
2023-05-21T13:30:24.577Z,77.10
2023-05-21T13:30:56.333Z,77.20
2023-05-21T13:31:28.579Z,76.90
2023-05-21T13:32:00.470Z,78.90
2023-05-21T13:32:32.415Z,77.00
2023-05-21T13:33:05.795Z,77.10
2023-05-21T13:33:37.770Z,76.40
2023-05-21T13:34:12.008Z,76.90
2023-05-21T13:34:43.785Z,77.00
2023-05-21T13:35:16.709Z,76.70
2023-05-21T13:35:51.246Z,76.60
2023-05-21T13:36:23.153Z,76.50
2023-05-21T13:36:54.942Z,76.70
2023-05-21T13:37:26.743Z,76.00
2023-05-21T13:37:58.571Z,76.60
2023-05-21T13:38:30.355Z,76.70
2023-05-21T13:39:02.142Z,76.80
2023-05-21T13:39:33.921Z,76.60
2023-05-21T13:40:16.929Z,76.60
2023-05-21T13:40:49.734Z,76.10
2023-05-21T13:41:22.141Z,76.90
2023-05-21T13:41:54.016Z,76.70
2023-05-21T13:42:25.843Z,76.60
2023-05-21T13:42:57.823Z,76.60
2023-05-21T13:43:29.669Z,76.70
2023-05-21T13:44:01.502Z,76.00
2023-05-21T13:44:36.106Z,76.70
2023-05-21T13:45:11.416Z,76.60
2023-05-21T13:45:43.847Z,76.70
2023-05-21T13:46:15.668Z,74.60
2023-05-21T13:46:47.800Z,76.10
2023-05-21T13:47:51.940Z,76.10
2023-05-21T13:48:23.882Z,76.90
2023-05-21T13:48:55.690Z,76.60
2023-05-21T13:49:27.492Z,76.60
2023-05-21T13:49:59.464Z,75.80
2023-05-21T13:50:31.377Z,76.60
2023-05-21T13:51:03.481Z,75.90
2023-05-21T13:51:39.044Z,76.40
2023-05-21T13:52:12.310Z,76.40
2023-05-21T13:52:44.254Z,76.30
2023-05-21T13:53:16.076Z,76.30
2023-05-21T13:53:47.938Z,75.50
2023-05-21T13:54:19.994Z,76.50
2023-05-21T13:54:51.898Z,76.10
2023-05-21T13:55:23.680Z,76.20
2023-05-21T13:55:55.562Z,78.30
2023-05-21T13:56:27.475Z,76.40
2023-05-21T13:56:59.395Z,76.20
2023-05-21T13:57:31.335Z,76.20
2023-05-21T13:58:03.558Z,76.30
2023-05-21T13:58:35.707Z,76.30
2023-05-21T13:59:07.514Z,76.20
2023-05-21T13:59:40.817Z,76.50
2023-05-21T14:00:15.324Z,76.50
2023-05-21T14:00:47.286Z,76.40
2023-05-21T14:01:19.341Z,76.40
2023-05-21T14:01:52.328Z,76.40
2023-05-21T14:02:24.339Z,76.20
2023-05-21T14:02:56.448Z,76.60
2023-05-21T14:03:28.493Z,76.40
2023-05-21T14:04:04.198Z,76.20
2023-05-21T14:04:38.943Z,75.60
2023-05-21T14:05:12.120Z,76.30
2023-05-21T14:05:44.170Z,76.40
2023-05-21T14:06:16.043Z,76.00
2023-05-21T14:06:48.275Z,76.30
2023-05-21T14:07:20.159Z,76.00
2023-05-21T14:07:52.004Z,75.80
2023-05-21T14:08:24.756Z,76.00
2023-05-21T14:08:56.571Z,75.90
2023-05-21T14:09:29.377Z,75.90
2023-05-21T14:10:01.433Z,75.70
2023-05-21T14:10:33.253Z,75.30
2023-05-21T14:11:05.139Z,75.80
2023-05-21T14:11:38.253Z,76.00
2023-05-21T14:12:10.123Z,76.80
2023-05-21T14:12:42.109Z,74.80
2023-05-21T14:13:19.431Z,74.80
2023-05-21T14:13:52.447Z,75.80
2023-05-21T14:14:24.742Z,75.90
2023-05-21T14:14:56.571Z,76.10
2023-05-21T14:15:28.372Z,76.10
2023-05-21T14:16:00.254Z,76.20
2023-05-21T14:16:32.069Z,75.70
2023-05-21T14:17:03.983Z,76.20
2023-05-21T14:17:35.916Z,76.10
2023-05-21T14:18:11.998Z,76.20
2023-05-21T14:18:43.873Z,76.30
2023-05-21T14:19:16.655Z,76.10
2023-05-21T14:19:48.521Z,76.00
2023-05-21T14:20:20.346Z,76.10
2023-05-21T14:20:53.277Z,76.30
2023-05-21T14:21:26.055Z,75.40
2023-05-21T14:21:59.763Z,76.10
2023-05-21T14:22:31.563Z,75.60
2023-05-21T14:23:03.409Z,76.00
2023-05-21T14:23:35.310Z,75.60
2023-05-21T14:24:07.147Z,76.20
2023-05-21T14:24:38.879Z,76.30
2023-05-21T14:25:11.085Z,75.50
2023-05-21T14:25:42.873Z,76.20
2023-05-21T14:26:15.799Z,76.30
2023-05-21T14:26:47.558Z,75.80
2023-05-21T14:27:19.387Z,75.40
2023-05-21T14:27:51.224Z,76.00
2023-05-21T14:28:23.032Z,76.00
2023-05-21T14:28:54.873Z,75.80
2023-05-21T14:29:26.697Z,75.70
2023-05-21T14:29:58.478Z,75.60
2023-05-21T14:30:30.304Z,75.80
2023-05-21T14:31:02.144Z,75.80
2023-05-21T14:31:34.076Z,75.90
2023-05-21T14:32:06.477Z,76.10
2023-05-21T14:32:38.368Z,75.20
2023-05-21T14:33:11.337Z,76.00
2023-05-21T14:33:43.170Z,75.20
2023-05-21T14:34:14.976Z,75.80
2023-05-21T14:34:46.763Z,75.40
2023-05-21T14:35:18.622Z,75.80
2023-05-21T14:35:50.439Z,76.10
2023-05-21T14:36:22.216Z,75.30
2023-05-21T14:36:54.065Z,76.00
2023-05-21T14:37:26.041Z,75.90
2023-05-21T14:37:57.856Z,76.10
2023-05-21T14:38:29.763Z,75.40
2023-05-21T14:39:01.764Z,75.90
2023-05-21T14:39:33.672Z,76.00
2023-05-21T14:40:07.792Z,75.40
2023-05-21T14:40:39.914Z,75.80
2023-05-21T14:41:11.693Z,75.90
2023-05-21T14:41:43.502Z,75.80
2023-05-21T14:42:15.374Z,76.00
2023-05-21T14:42:47.220Z,76.10
2023-05-21T14:43:19.080Z,76.20
2023-05-21T14:43:50.973Z,76.40
2023-05-21T14:44:22.827Z,75.50
2023-05-21T14:44:54.603Z,76.10
2023-05-21T14:45:26.618Z,76.00
2023-05-21T14:45:58.595Z,75.40
2023-05-21T14:46:30.565Z,75.90
2023-05-21T14:47:02.468Z,76.10
2023-05-21T14:47:34.271Z,76.00
2023-05-21T14:48:08.612Z,75.80
2023-05-21T14:48:40.530Z,75.90
2023-05-21T14:49:13.164Z,75.90
2023-05-21T14:49:45.001Z,76.40
2023-05-21T14:50:17.922Z,75.40
2023-05-21T14:50:53.069Z,76.00
2023-05-21T14:51:25.190Z,75.40
2023-05-21T14:51:57.043Z,76.20
2023-05-21T14:52:28.820Z,76.00
2023-05-21T14:53:12.849Z,76.10
2023-05-21T14:53:44.647Z,75.90
2023-05-21T14:54:16.467Z,76.10
2023-05-21T14:54:48.303Z,76.30
2023-05-21T14:55:22.328Z,76.30
2023-05-21T14:55:54.200Z,76.40
2023-05-21T14:56:27.681Z,75.90
2023-05-21T14:56:59.585Z,76.50
2023-05-21T14:57:31.408Z,76.40
2023-05-21T14:58:04.446Z,76.50
2023-05-21T14:58:36.340Z,76.50
2023-05-21T14:59:08.182Z,76.40
2023-05-21T14:59:39.965Z,76.50
2023-05-21T15:00:12.459Z,75.80
2023-05-21T15:00:44.497Z,76.50
2023-05-21T15:01:16.528Z,76.40
2023-05-21T15:01:48.713Z,76.60
2023-05-21T15:02:20.722Z,76.00
2023-05-21T15:02:54.588Z,77.10
2023-05-21T15:03:27.717Z,76.70
2023-05-21T15:03:59.701Z,76.70
2023-05-21T15:04:31.645Z,76.70
2023-05-21T15:05:03.554Z,76.60
2023-05-21T15:05:35.931Z,76.70
2023-05-21T15:06:08.236Z,76.80
2023-05-21T15:06:40.024Z,76.70
2023-05-21T15:07:11.837Z,76.80
2023-05-21T15:07:43.887Z,76.00
2023-05-21T15:08:15.702Z,75.70
2023-05-21T15:08:47.539Z,76.80
2023-05-21T15:09:19.388Z,76.00
2023-05-21T15:09:51.141Z,76.60
2023-05-21T15:10:23.844Z,75.90
2023-05-21T15:10:55.604Z,74.30
2023-05-21T15:11:27.918Z,76.40
2023-05-21T15:11:59.725Z,76.80
2023-05-21T15:12:31.654Z,76.30
2023-05-21T15:13:03.448Z,76.40
2023-05-21T15:13:35.405Z,76.20
2023-05-21T15:14:07.228Z,76.30
2023-05-21T15:14:39.784Z,76.10
2023-05-21T15:15:12.455Z,76.20
2023-05-21T15:15:44.641Z,76.00
2023-05-21T15:16:18.739Z,75.50
2023-05-21T15:16:51.596Z,76.20
2023-05-21T15:17:23.850Z,76.10
2023-05-21T15:17:57.714Z,76.00
2023-05-21T15:18:32.123Z,75.90
2023-05-21T15:19:04.540Z,76.00
2023-05-21T15:19:36.517Z,76.60
2023-05-21T15:20:09.435Z,75.80
2023-05-21T15:20:41.329Z,75.60
2023-05-21T15:21:13.218Z,75.80
2023-05-21T15:21:45.016Z,76.00
2023-05-21T15:22:16.864Z,75.80
2023-05-21T15:22:49.003Z,76.00
2023-05-21T15:23:20.992Z,75.30
2023-05-21T15:23:53.465Z,76.20
2023-05-21T15:24:25.290Z,75.90
2023-05-21T15:24:57.242Z,75.90
2023-05-21T15:25:29.078Z,76.00
2023-05-21T15:26:01.231Z,76.30
2023-05-21T15:26:33.223Z,76.20
2023-05-21T15:27:05.245Z,75.40
2023-05-21T15:27:37.143Z,76.20
2023-05-21T15:28:09.113Z,75.80
2023-05-21T15:28:40.902Z,76.00
2023-05-21T15:29:12.728Z,76.20
2023-05-21T15:29:45.860Z,76.20
2023-05-21T15:30:17.779Z,76.10
2023-05-21T15:30:49.631Z,76.30
2023-05-21T15:31:21.491Z,75.30
2023-05-21T15:31:53.301Z,76.00
2023-05-21T15:32:25.461Z,75.80
2023-05-21T15:32:57.237Z,75.90
2023-05-21T15:33:29.118Z,75.90
2023-05-21T15:34:00.966Z,75.80
2023-05-21T15:34:33.226Z,75.80
2023-05-21T15:35:05.487Z,75.30
2023-05-21T15:35:38.121Z,76.00
2023-05-21T15:36:10.327Z,76.00
2023-05-21T15:36:42.162Z,75.00
2023-05-21T15:37:16.905Z,76.00
2023-05-21T15:37:48.714Z,75.80
2023-05-21T15:38:20.624Z,75.80
2023-05-21T15:38:52.861Z,75.30
2023-05-21T15:39:24.831Z,76.10
2023-05-21T15:39:56.658Z,76.00
2023-05-21T15:40:28.513Z,76.10
2023-05-21T15:41:00.437Z,74.50
2023-05-21T15:41:37.260Z,76.10
2023-05-21T15:42:09.171Z,76.40
2023-05-21T15:42:40.948Z,76.50
2023-05-21T15:43:12.870Z,76.20
2023-05-21T15:43:46.300Z,76.00
2023-05-21T15:44:18.174Z,76.00
2023-05-21T15:44:50.100Z,75.50
2023-05-21T15:45:21.862Z,76.00
2023-05-21T15:45:53.648Z,76.00
2023-05-21T15:46:25.721Z,75.80
2023-05-21T15:46:57.863Z,75.40
2023-05-21T15:47:29.793Z,75.90
2023-05-21T15:48:01.817Z,76.10
2023-05-21T15:48:33.672Z,75.80
2023-05-21T15:49:05.846Z,75.80
2023-05-21T15:49:37.682Z,76.20
2023-05-21T15:50:10.405Z,76.00
2023-05-21T15:50:42.336Z,75.20
2023-05-21T15:51:14.120Z,75.80
2023-05-21T15:51:47.705Z,75.80
2023-05-21T15:52:20.015Z,75.60
2023-05-21T15:52:53.330Z,77.60
2023-05-21T15:53:25.649Z,75.20
2023-05-21T15:53:57.500Z,75.20
2023-05-21T15:54:30.387Z,75.80
2023-05-21T15:55:02.261Z,75.50
2023-05-21T15:55:34.358Z,75.60
2023-05-21T15:56:06.415Z,75.60
2023-05-21T15:56:38.326Z,75.70
2023-05-21T15:57:10.107Z,75.50
2023-05-21T15:57:41.907Z,75.40
2023-05-21T15:58:13.690Z,75.80
2023-05-21T15:58:45.712Z,75.80
2023-05-21T15:59:17.526Z,75.60
2023-05-21T15:59:50.577Z,75.60
2023-05-21T16:00:22.392Z,75.50
2023-05-21T16:00:54.225Z,75.60
2023-05-21T16:01:27.677Z,75.50
2023-05-21T16:01:59.625Z,75.30
2023-05-21T16:02:31.451Z,75.50
2023-05-21T16:03:03.662Z,75.50
2023-05-21T16:03:35.537Z,75.60
2023-05-21T16:04:07.594Z,74.90
2023-05-21T16:04:39.533Z,75.60
2023-05-21T16:05:11.410Z,75.90
2023-05-21T16:05:43.190Z,75.00
2023-05-21T16:06:14.969Z,76.00
2023-05-21T16:06:47.523Z,76.00
2023-05-21T16:07:19.625Z,75.70
2023-05-21T16:08:23.728Z,74.80
2023-05-21T16:08:55.649Z,75.80
2023-05-21T16:09:27.555Z,75.90
2023-05-21T16:09:59.354Z,75.70
2023-05-21T16:10:31.186Z,75.70
2023-05-21T16:11:03.107Z,75.80
2023-05-21T16:11:35.268Z,75.80
2023-05-21T16:12:07.188Z,75.50
2023-05-21T16:12:40.096Z,75.60
2023-05-21T16:13:12.120Z,75.50
2023-05-21T16:13:43.916Z,75.00
2023-05-21T16:14:15.813Z,75.60
2023-05-21T16:14:50.059Z,75.70
2023-05-21T16:15:22.022Z,75.50
2023-05-21T16:15:53.881Z,75.70
2023-05-21T16:16:25.756Z,75.70
2023-05-21T16:16:57.640Z,75.50
2023-05-21T16:17:29.501Z,74.80
2023-05-21T16:18:01.451Z,75.40
2023-05-21T16:18:33.280Z,75.40
2023-05-21T16:19:05.200Z,75.50
2023-05-21T16:19:37.080Z,74.30
2023-05-21T16:20:09.163Z,75.60
2023-05-21T16:20:40.933Z,75.50
2023-05-21T16:21:12.903Z,75.40
2023-05-21T16:21:44.722Z,75.50
2023-05-21T16:22:17.002Z,75.40
2023-05-21T16:22:49.026Z,75.70
2023-05-21T16:23:20.851Z,75.50
2023-05-21T16:23:52.634Z,75.40
2023-05-21T16:24:24.490Z,75.40
2023-05-21T16:24:56.354Z,75.40
2023-05-21T16:25:28.161Z,75.50
2023-05-21T16:26:00.429Z,74.90
2023-05-21T16:26:32.350Z,75.50
2023-05-21T16:27:04.909Z,75.50
2023-05-21T16:27:36.929Z,75.40
2023-05-21T16:28:08.842Z,75.60